フェニックス の空港の天気 - METARとTAF

フェニックス・スカイハーバー国際空港 ( KPHX / PHX ) - アメリカ アリゾナ州フェニックス
飛行場実況気象(Metar)
観測時間10/15 22:51 MST (10/16 05:51 UTC)
風向・風速東 5m/s
視程10km以上
天気現象
全天の4割程度の雲 雲底高度 2740m
全天の8割程度の雲 雲底高度 3350m
全天の8割程度の雲 雲底高度 4570m
気温20℃
湿度42%
気圧1013.3hPa
METARKPHX 160551Z 08010KT 10SM SCT090 BKN110 BKN150 20/07 A2996 RMK AO2 SLP133 T02000067 10250 20200 53019 $
過去の天気等 Google飛行場航空写真 Wunderground天気予報

過去48時間のMETAR

飛行場予報(TAF)
発表時間: 10/15 22:20 MST (10/16 05:20 UTC)
予報対象時間: 15日23時 MST ~ 17日5時 MST
風向・風速東 5m/s 瞬間風速 10m/s
視程10km以上
天気現象弱いしゅう雨
全天の8割程度の雲 雲底高度 2440m
全天を覆う雲 雲底高度 3660m
16日2時 MST から
風向・風速東 7m/s
視程10km以上
天気現象周辺でしゅう雨
全天の8割程度の雲 雲底高度 1830m
全天を覆う雲 雲底高度 3050m
16日8時 MST から
風向・風速東 6m/s
視程10km以上
全天を覆う雲 雲底高度 1830m
16日14時 MST から
風向・風速東北東 4m/s
視程10km以上
全天の8割程度の雲 雲底高度 2130m
全天の8割程度の雲 雲底高度 2740m
16日19時 MST から
風向・風速北東 5m/s
視程10km以上
全天の4割程度の雲 雲底高度 2130m
KPHX 160520Z 1606/1712 08010G19KT P6SM -SHRA BKN080 OVC120
FM160900 08013KT P6SM VCSH BKN060 OVC100
FM161500 09011KT P6SM OVC060
FM162100 06008KT P6SM BKN070 BKN090
FM170200 05009KT P6SM SCT070